sensor_id;sensor_type;location;lat;lon;timestamp;temperature;humidity
61765;DHT22;50188;48.114;-1.388;2022-07-23T00:01:32;17.00;73.70
61765;DHT22;50188;48.114;-1.388;2022-07-23T00:03:58;17.00;73.80
61765;DHT22;50188;48.114;-1.388;2022-07-23T00:06:24;16.90;74.40
61765;DHT22;50188;48.114;-1.388;2022-07-23T00:08:50;16.90;74.20
61765;DHT22;50188;48.114;-1.388;2022-07-23T00:11:16;16.90;74.40
61765;DHT22;50188;48.114;-1.388;2022-07-23T00:13:42;16.90;74.70
61765;DHT22;50188;48.114;-1.388;2022-07-23T00:16:09;16.80;74.40
61765;DHT22;50188;48.114;-1.388;2022-07-23T00:18:34;16.80;74.50
61765;DHT22;50188;48.114;-1.388;2022-07-23T00:21:03;16.80;75.20
61765;DHT22;50188;48.114;-1.388;2022-07-23T00:23:29;16.90;75.40
61765;DHT22;50188;48.114;-1.388;2022-07-23T00:25:56;16.80;75.40
61765;DHT22;50188;48.114;-1.388;2022-07-23T00:28:22;16.80;75.60
61765;DHT22;50188;48.114;-1.388;2022-07-23T00:30:48;16.80;76.40
61765;DHT22;50188;48.114;-1.388;2022-07-23T00:33:14;16.80;77.00
61765;DHT22;50188;48.114;-1.388;2022-07-23T00:35:41;16.70;77.00
61765;DHT22;50188;48.114;-1.388;2022-07-23T00:38:08;16.70;76.70
61765;DHT22;50188;48.114;-1.388;2022-07-23T00:40:35;16.70;76.50
61765;DHT22;50188;48.114;-1.388;2022-07-23T00:43:01;16.70;77.00
61765;DHT22;50188;48.114;-1.388;2022-07-23T00:45:27;16.70;77.80
61765;DHT22;50188;48.114;-1.388;2022-07-23T00:47:53;16.60;78.00
61765;DHT22;50188;48.114;-1.388;2022-07-23T00:50:19;16.50;78.60
61765;DHT22;50188;48.114;-1.388;2022-07-23T00:52:47;16.50;78.00
61765;DHT22;50188;48.114;-1.388;2022-07-23T00:55:13;16.50;78.20
61765;DHT22;50188;48.114;-1.388;2022-07-23T00:57:40;16.50;77.00
61765;DHT22;50188;48.114;-1.388;2022-07-23T01:00:10;16.50;77.30
61765;DHT22;50188;48.114;-1.388;2022-07-23T01:02:36;16.50;77.10
61765;DHT22;50188;48.114;-1.388;2022-07-23T01:05:03;16.50;77.20
61765;DHT22;50188;48.114;-1.388;2022-07-23T01:07:29;16.50;77.00
61765;DHT22;50188;48.114;-1.388;2022-07-23T01:09:55;16.50;76.80
61765;DHT22;50188;48.114;-1.388;2022-07-23T01:12:21;16.40;77.50
61765;DHT22;50188;48.114;-1.388;2022-07-23T01:15:00;16.40;78.10
61765;DHT22;50188;48.114;-1.388;2022-07-23T01:17:26;16.40;78.10
61765;DHT22;50188;48.114;-1.388;2022-07-23T01:19:52;16.40;78.00
61765;DHT22;50188;48.114;-1.388;2022-07-23T01:22:19;16.40;78.70
61765;DHT22;50188;48.114;-1.388;2022-07-23T01:24:45;16.30;78.90
61765;DHT22;50188;48.114;-1.388;2022-07-23T01:27:11;16.40;79.10
61765;DHT22;50188;48.114;-1.388;2022-07-23T01:29:38;16.40;79.30
61765;DHT22;50188;48.114;-1.388;2022-07-23T01:32:05;16.40;79.90
61765;DHT22;50188;48.114;-1.388;2022-07-23T01:34:31;16.40;80.20
61765;DHT22;50188;48.114;-1.388;2022-07-23T01:36:57;16.40;81.10
61765;DHT22;50188;48.114;-1.388;2022-07-23T01:39:22;16.40;81.10
61765;DHT22;50188;48.114;-1.388;2022-07-23T01:41:48;16.40;81.50
61765;DHT22;50188;48.114;-1.388;2022-07-23T01:44:14;16.40;81.40
61765;DHT22;50188;48.114;-1.388;2022-07-23T01:46:40;16.40;81.70
61765;DHT22;50188;48.114;-1.388;2022-07-23T01:49:05;16.40;81.40
61765;DHT22;50188;48.114;-1.388;2022-07-23T01:51:31;16.40;81.50
61765;DHT22;50188;48.114;-1.388;2022-07-23T01:53:57;16.50;81.60
61765;DHT22;50188;48.114;-1.388;2022-07-23T01:56:22;16.40;81.70
61765;DHT22;50188;48.114;-1.388;2022-07-23T01:58:48;16.40;82.00
61765;DHT22;50188;48.114;-1.388;2022-07-23T02:01:14;16.40;82.20
61765;DHT22;50188;48.114;-1.388;2022-07-23T02:03:40;16.40;81.80
61765;DHT22;50188;48.114;-1.388;2022-07-23T02:06:06;16.40;81.90
61765;DHT22;50188;48.114;-1.388;2022-07-23T02:08:31;16.40;81.50
61765;DHT22;50188;48.114;-1.388;2022-07-23T02:10:57;16.40;81.80
61765;DHT22;50188;48.114;-1.388;2022-07-23T02:13:23;16.50;81.80
61765;DHT22;50188;48.114;-1.388;2022-07-23T02:15:48;16.50;81.90
61765;DHT22;50188;48.114;-1.388;2022-07-23T02:18:14;16.40;82.00
61765;DHT22;50188;48.114;-1.388;2022-07-23T02:20:41;16.50;81.90
61765;DHT22;50188;48.114;-1.388;2022-07-23T02:23:07;16.40;82.10
61765;DHT22;50188;48.114;-1.388;2022-07-23T02:25:33;16.40;81.80
61765;DHT22;50188;48.114;-1.388;2022-07-23T02:27:59;16.40;81.70
61765;DHT22;50188;48.114;-1.388;2022-07-23T02:30:25;16.30;82.00
61765;DHT22;50188;48.114;-1.388;2022-07-23T02:32:51;16.40;81.60
61765;DHT22;50188;48.114;-1.388;2022-07-23T02:35:16;16.40;81.90
61765;DHT22;50188;48.114;-1.388;2022-07-23T02:37:42;16.40;82.10
61765;DHT22;50188;48.114;-1.388;2022-07-23T02:40:08;16.40;82.00
61765;DHT22;50188;48.114;-1.388;2022-07-23T02:42:34;16.40;82.30
61765;DHT22;50188;48.114;-1.388;2022-07-23T02:44:59;16.30;82.70
61765;DHT22;50188;48.114;-1.388;2022-07-23T02:47:25;16.40;82.40
61765;DHT22;50188;48.114;-1.388;2022-07-23T02:49:51;16.40;82.20
61765;DHT22;50188;48.114;-1.388;2022-07-23T02:52:16;16.40;82.40
61765;DHT22;50188;48.114;-1.388;2022-07-23T02:54:42;16.40;82.30
61765;DHT22;50188;48.114;-1.388;2022-07-23T02:57:08;16.40;82.60
61765;DHT22;50188;48.114;-1.388;2022-07-23T02:59:33;16.40;82.50
61765;DHT22;50188;48.114;-1.388;2022-07-23T03:01:59;16.40;82.00
61765;DHT22;50188;48.114;-1.388;2022-07-23T03:04:25;16.40;81.90
61765;DHT22;50188;48.114;-1.388;2022-07-23T03:06:50;16.40;81.70
61765;DHT22;50188;48.114;-1.388;2022-07-23T03:09:16;16.40;81.50
61765;DHT22;50188;48.114;-1.388;2022-07-23T03:11:41;16.40;81.80
61765;DHT22;50188;48.114;-1.388;2022-07-23T03:14:07;16.30;81.90
61765;DHT22;50188;48.114;-1.388;2022-07-23T03:16:33;16.40;81.50
61765;DHT22;50188;48.114;-1.388;2022-07-23T03:18:58;16.40;81.30
61765;DHT22;50188;48.114;-1.388;2022-07-23T03:21:24;16.30;80.90
61765;DHT22;50188;48.114;-1.388;2022-07-23T03:23:49;16.30;80.70
61765;DHT22;50188;48.114;-1.388;2022-07-23T03:26:15;16.30;80.70
61765;DHT22;50188;48.114;-1.388;2022-07-23T03:28:41;16.30;80.50
61765;DHT22;50188;48.114;-1.388;2022-07-23T03:31:06;16.20;80.30
61765;DHT22;50188;48.114;-1.388;2022-07-23T03:33:32;16.30;80.40
61765;DHT22;50188;48.114;-1.388;2022-07-23T03:35:57;16.30;79.90
61765;DHT22;50188;48.114;-1.388;2022-07-23T03:38:23;16.20;80.00
61765;DHT22;50188;48.114;-1.388;2022-07-23T03:40:49;16.20;79.50
61765;DHT22;50188;48.114;-1.388;2022-07-23T03:43:14;16.20;79.50
61765;DHT22;50188;48.114;-1.388;2022-07-23T03:45:40;16.20;79.60
61765;DHT22;50188;48.114;-1.388;2022-07-23T03:48:06;16.10;80.50
61765;DHT22;50188;48.114;-1.388;2022-07-23T03:50:31;16.00;81.20
61765;DHT22;50188;48.114;-1.388;2022-07-23T03:52:57;16.10;81.00
61765;DHT22;50188;48.114;-1.388;2022-07-23T03:55:22;16.10;81.10
61765;DHT22;50188;48.114;-1.388;2022-07-23T03:57:48;16.00;81.40
61765;DHT22;50188;48.114;-1.388;2022-07-23T04:00:14;16.00;81.80
61765;DHT22;50188;48.114;-1.388;2022-07-23T04:02:40;16.10;81.90
61765;DHT22;50188;48.114;-1.388;2022-07-23T04:05:06;16.00;82.50
61765;DHT22;50188;48.114;-1.388;2022-07-23T04:07:32;16.00;80.50
61765;DHT22;50188;48.114;-1.388;2022-07-23T04:09:58;16.00;79.80
61765;DHT22;50188;48.114;-1.388;2022-07-23T04:12:24;16.00;80.10
61765;DHT22;50188;48.114;-1.388;2022-07-23T04:14:50;15.90;80.20
61765;DHT22;50188;48.114;-1.388;2022-07-23T04:17:16;16.00;79.80
61765;DHT22;50188;48.114;-1.388;2022-07-23T04:19:41;15.90;79.50
61765;DHT22;50188;48.114;-1.388;2022-07-23T04:22:09;15.90;79.70
61765;DHT22;50188;48.114;-1.388;2022-07-23T04:24:35;15.90;80.80
61765;DHT22;50188;48.114;-1.388;2022-07-23T04:27:01;15.80;81.70
61765;DHT22;50188;48.114;-1.388;2022-07-23T04:29:27;15.80;80.40
61765;DHT22;50188;48.114;-1.388;2022-07-23T04:31:52;15.80;80.30
61765;DHT22;50188;48.114;-1.388;2022-07-23T04:34:18;15.80;80.50
61765;DHT22;50188;48.114;-1.388;2022-07-23T04:36:45;15.80;81.60
61765;DHT22;50188;48.114;-1.388;2022-07-23T04:39:10;15.80;81.30
61765;DHT22;50188;48.114;-1.388;2022-07-23T04:41:36;15.80;81.30
61765;DHT22;50188;48.114;-1.388;2022-07-23T04:44:02;15.80;81.30
61765;DHT22;50188;48.114;-1.388;2022-07-23T04:46:28;15.90;81.20
61765;DHT22;50188;48.114;-1.388;2022-07-23T04:48:54;15.80;82.00
61765;DHT22;50188;48.114;-1.388;2022-07-23T04:51:20;15.80;82.00
61765;DHT22;50188;48.114;-1.388;2022-07-23T04:53:46;15.80;82.70
61765;DHT22;50188;48.114;-1.388;2022-07-23T04:56:11;15.80;82.10
61765;DHT22;50188;48.114;-1.388;2022-07-23T04:58:37;15.80;82.10
61765;DHT22;50188;48.114;-1.388;2022-07-23T05:01:03;15.90;82.40
61765;DHT22;50188;48.114;-1.388;2022-07-23T05:03:28;15.90;81.70
61765;DHT22;50188;48.114;-1.388;2022-07-23T05:05:54;15.90;83.00
61765;DHT22;50188;48.114;-1.388;2022-07-23T05:08:20;15.90;82.10
61765;DHT22;50188;48.114;-1.388;2022-07-23T05:10:46;16.00;82.10
61765;DHT22;50188;48.114;-1.388;2022-07-23T05:13:11;16.10;81.60
61765;DHT22;50188;48.114;-1.388;2022-07-23T05:15:37;16.10;81.70
61765;DHT22;50188;48.114;-1.388;2022-07-23T05:18:03;16.70;81.80
61765;DHT22;50188;48.114;-1.388;2022-07-23T05:20:28;17.40;80.00
61765;DHT22;50188;48.114;-1.388;2022-07-23T05:22:54;18.20;77.50
61765;DHT22;50188;48.114;-1.388;2022-07-23T05:25:20;18.80;75.00
61765;DHT22;50188;48.114;-1.388;2022-07-23T05:27:45;19.40;72.80
61765;DHT22;50188;48.114;-1.388;2022-07-23T05:30:11;19.90;71.20
61765;DHT22;50188;48.114;-1.388;2022-07-23T05:32:37;20.50;69.10
61765;DHT22;50188;48.114;-1.388;2022-07-23T05:35:05;21.00;66.90
61765;DHT22;50188;48.114;-1.388;2022-07-23T05:37:31;21.40;64.90
61765;DHT22;50188;48.114;-1.388;2022-07-23T05:40:04;21.60;63.70
61765;DHT22;50188;48.114;-1.388;2022-07-23T05:42:33;22.30;62.70
61765;DHT22;50188;48.114;-1.388;2022-07-23T05:44:59;22.90;60.50
61765;DHT22;50188;48.114;-1.388;2022-07-23T05:47:25;23.40;57.80
61765;DHT22;50188;48.114;-1.388;2022-07-23T05:49:51;24.40;55.40
61765;DHT22;50188;48.114;-1.388;2022-07-23T05:52:16;24.60;53.50
61765;DHT22;50188;48.114;-1.388;2022-07-23T05:54:42;25.40;50.80
61765;DHT22;50188;48.114;-1.388;2022-07-23T05:57:08;25.70;49.70
61765;DHT22;50188;48.114;-1.388;2022-07-23T05:59:34;26.30;48.30
61765;DHT22;50188;48.114;-1.388;2022-07-23T06:02:00;26.60;47.70
61765;DHT22;50188;48.114;-1.388;2022-07-23T06:04:26;26.70;46.70
61765;DHT22;50188;48.114;-1.388;2022-07-23T06:06:52;27.10;46.40
61765;DHT22;50188;48.114;-1.388;2022-07-23T06:09:17;27.10;45.30
61765;DHT22;50188;48.114;-1.388;2022-07-23T06:11:43;28.00;43.90
61765;DHT22;50188;48.114;-1.388;2022-07-23T06:14:09;28.50;42.50
61765;DHT22;50188;48.114;-1.388;2022-07-23T06:16:35;28.20;41.70
61765;DHT22;50188;48.114;-1.388;2022-07-23T06:19:01;28.70;41.30
61765;DHT22;50188;48.114;-1.388;2022-07-23T06:21:27;28.50;41.40
61765;DHT22;50188;48.114;-1.388;2022-07-23T06:23:52;29.10;40.40
61765;DHT22;50188;48.114;-1.388;2022-07-23T06:26:18;29.70;40.10
61765;DHT22;50188;48.114;-1.388;2022-07-23T06:28:44;29.20;38.60
61765;DHT22;50188;48.114;-1.388;2022-07-23T06:31:09;30.00;38.80
61765;DHT22;50188;48.114;-1.388;2022-07-23T06:33:35;30.50;37.50
61765;DHT22;50188;48.114;-1.388;2022-07-23T06:36:01;30.40;37.80
61765;DHT22;50188;48.114;-1.388;2022-07-23T06:38:26;30.40;37.40
61765;DHT22;50188;48.114;-1.388;2022-07-23T06:40:52;30.60;36.80
61765;DHT22;50188;48.114;-1.388;2022-07-23T06:43:18;30.70;36.90
61765;DHT22;50188;48.114;-1.388;2022-07-23T06:45:43;30.70;36.70
61765;DHT22;50188;48.114;-1.388;2022-07-23T06:48:09;31.20;36.90
61765;DHT22;50188;48.114;-1.388;2022-07-23T06:50:35;31.70;36.10
61765;DHT22;50188;48.114;-1.388;2022-07-23T06:53:00;31.50;35.80
61765;DHT22;50188;48.114;-1.388;2022-07-23T06:55:26;32.10;36.20
61765;DHT22;50188;48.114;-1.388;2022-07-23T06:57:52;32.00;35.80
61765;DHT22;50188;48.114;-1.388;2022-07-23T07:00:18;31.40;36.60
61765;DHT22;50188;48.114;-1.388;2022-07-23T07:02:44;30.20;37.70
61765;DHT22;50188;48.114;-1.388;2022-07-23T07:05:10;28.90;39.70
61765;DHT22;50188;48.114;-1.388;2022-07-23T07:07:36;28.00;41.10
61765;DHT22;50188;48.114;-1.388;2022-07-23T07:10:03;28.20;42.50
61765;DHT22;50188;48.114;-1.388;2022-07-23T07:12:29;28.20;42.50
61765;DHT22;50188;48.114;-1.388;2022-07-23T07:14:54;28.90;42.60
61765;DHT22;50188;48.114;-1.388;2022-07-23T07:17:20;29.90;41.20
61765;DHT22;50188;48.114;-1.388;2022-07-23T07:19:46;29.80;40.60
61765;DHT22;50188;48.114;-1.388;2022-07-23T07:22:12;29.50;40.80
61765;DHT22;50188;48.114;-1.388;2022-07-23T07:24:38;29.80;39.70
61765;DHT22;50188;48.114;-1.388;2022-07-23T07:27:04;30.10;40.20
61765;DHT22;50188;48.114;-1.388;2022-07-23T07:29:30;31.10;38.80
61765;DHT22;50188;48.114;-1.388;2022-07-23T07:31:56;31.70;37.70
61765;DHT22;50188;48.114;-1.388;2022-07-23T07:34:22;31.20;37.30
61765;DHT22;50188;48.114;-1.388;2022-07-23T07:36:47;31.10;38.50
61765;DHT22;50188;48.114;-1.388;2022-07-23T07:39:13;32.10;37.00
61765;DHT22;50188;48.114;-1.388;2022-07-23T07:41:40;32.10;37.10
61765;DHT22;50188;48.114;-1.388;2022-07-23T07:44:05;31.40;36.00
61765;DHT22;50188;48.114;-1.388;2022-07-23T07:46:31;31.60;37.00
61765;DHT22;50188;48.114;-1.388;2022-07-23T07:48:57;30.70;37.30
61765;DHT22;50188;48.114;-1.388;2022-07-23T07:51:23;31.30;38.00
61765;DHT22;50188;48.114;-1.388;2022-07-23T07:53:49;30.90;38.10
61765;DHT22;50188;48.114;-1.388;2022-07-23T07:56:15;30.80;38.40
61765;DHT22;50188;48.114;-1.388;2022-07-23T07:58:41;31.50;37.50
61765;DHT22;50188;48.114;-1.388;2022-07-23T08:01:07;30.40;38.30
61765;DHT22;50188;48.114;-1.388;2022-07-23T08:03:33;30.50;39.20
61765;DHT22;50188;48.114;-1.388;2022-07-23T08:05:58;29.80;39.70
61765;DHT22;50188;48.114;-1.388;2022-07-23T08:08:24;30.20;40.00
61765;DHT22;50188;48.114;-1.388;2022-07-23T08:10:50;28.80;39.40
61765;DHT22;50188;48.114;-1.388;2022-07-23T08:13:17;28.80;41.40
61765;DHT22;50188;48.114;-1.388;2022-07-23T08:15:43;28.70;41.50
61765;DHT22;50188;48.114;-1.388;2022-07-23T08:18:09;28.30;42.60
61765;DHT22;50188;48.114;-1.388;2022-07-23T08:20:35;27.60;44.10
61765;DHT22;50188;48.114;-1.388;2022-07-23T08:23:06;26.70;44.90
61765;DHT22;50188;48.114;-1.388;2022-07-23T08:25:36;26.60;45.50
61765;DHT22;50188;48.114;-1.388;2022-07-23T08:28:04;26.70;46.10
61765;DHT22;50188;48.114;-1.388;2022-07-23T08:30:44;26.30;47.10
61765;DHT22;50188;48.114;-1.388;2022-07-23T08:33:13;26.20;47.30
61765;DHT22;50188;48.114;-1.388;2022-07-23T08:35:41;25.80;47.90
61765;DHT22;50188;48.114;-1.388;2022-07-23T08:38:09;26.40;47.70
61765;DHT22;50188;48.114;-1.388;2022-07-23T08:40:44;26.00;49.00
61765;DHT22;50188;48.114;-1.388;2022-07-23T08:43:13;26.10;48.40
61765;DHT22;50188;48.114;-1.388;2022-07-23T08:45:39;26.60;48.30
61765;DHT22;50188;48.114;-1.388;2022-07-23T08:48:11;26.60;48.80
61765;DHT22;50188;48.114;-1.388;2022-07-23T08:50:37;26.40;48.70
61765;DHT22;50188;48.114;-1.388;2022-07-23T08:53:06;26.50;48.20
61765;DHT22;50188;48.114;-1.388;2022-07-23T08:55:32;26.30;47.70
61765;DHT22;50188;48.114;-1.388;2022-07-23T08:57:58;26.40;47.60
61765;DHT22;50188;48.114;-1.388;2022-07-23T09:00:23;26.10;48.20
61765;DHT22;50188;48.114;-1.388;2022-07-23T09:02:50;26.00;48.30
61765;DHT22;50188;48.114;-1.388;2022-07-23T09:05:16;26.70;49.00
61765;DHT22;50188;48.114;-1.388;2022-07-23T09:08:04;27.20;46.80
61765;DHT22;50188;48.114;-1.388;2022-07-23T09:10:30;27.20;45.60
61765;DHT22;50188;48.114;-1.388;2022-07-23T09:12:56;26.70;45.70
61765;DHT22;50188;48.114;-1.388;2022-07-23T09:15:22;26.70;46.40
61765;DHT22;50188;48.114;-1.388;2022-07-23T09:17:48;26.60;46.40
61765;DHT22;50188;48.114;-1.388;2022-07-23T09:20:16;26.30;47.70
61765;DHT22;50188;48.114;-1.388;2022-07-23T09:22:46;26.00;47.70
61765;DHT22;50188;48.114;-1.388;2022-07-23T09:25:16;26.50;47.90
61765;DHT22;50188;48.114;-1.388;2022-07-23T09:27:54;26.30;48.80
61765;DHT22;50188;48.114;-1.388;2022-07-23T09:30:26;26.10;48.90
61765;DHT22;50188;48.114;-1.388;2022-07-23T09:33:13;26.70;48.60
61765;DHT22;50188;48.114;-1.388;2022-07-23T09:35:45;27.10;47.20
61765;DHT22;50188;48.114;-1.388;2022-07-23T09:38:12;27.40;46.80
61765;DHT22;50188;48.114;-1.388;2022-07-23T09:40:38;28.30;45.20
61765;DHT22;50188;48.114;-1.388;2022-07-23T09:43:03;28.40;43.80
61765;DHT22;50188;48.114;-1.388;2022-07-23T09:45:29;28.30;44.00
61765;DHT22;50188;48.114;-1.388;2022-07-23T09:48:13;28.70;42.20
61765;DHT22;50188;48.114;-1.388;2022-07-23T09:50:39;29.00;42.00
61765;DHT22;50188;48.114;-1.388;2022-07-23T09:53:05;29.70;40.90
61765;DHT22;50188;48.114;-1.388;2022-07-23T09:55:32;29.30;39.20
61765;DHT22;50188;48.114;-1.388;2022-07-23T09:58:03;29.30;38.70
61765;DHT22;50188;48.114;-1.388;2022-07-23T10:00:30;28.80;39.20
61765;DHT22;50188;48.114;-1.388;2022-07-23T10:02:57;29.00;41.10
61765;DHT22;50188;48.114;-1.388;2022-07-23T10:05:24;28.80;39.10
61765;DHT22;50188;48.114;-1.388;2022-07-23T10:07:51;28.40;39.70
61765;DHT22;50188;48.114;-1.388;2022-07-23T10:10:17;28.00;42.20
61765;DHT22;50188;48.114;-1.388;2022-07-23T10:12:46;27.90;43.20
61765;DHT22;50188;48.114;-1.388;2022-07-23T10:15:32;27.00;41.90
61765;DHT22;50188;48.114;-1.388;2022-07-23T10:17:58;26.90;43.20
61765;DHT22;50188;48.114;-1.388;2022-07-23T10:20:23;27.70;42.40
61765;DHT22;50188;48.114;-1.388;2022-07-23T10:23:15;28.30;41.30
61765;DHT22;50188;48.114;-1.388;2022-07-23T10:25:58;29.00;39.60
61765;DHT22;50188;48.114;-1.388;2022-07-23T10:31:49;29.30;38.50
61765;DHT22;50188;48.114;-1.388;2022-07-23T10:34:34;29.40;37.00
61765;DHT22;50188;48.114;-1.388;2022-07-23T10:37:17;30.30;36.40
61765;DHT22;50188;48.114;-1.388;2022-07-23T10:40:12;30.60;35.50
61765;DHT22;50188;48.114;-1.388;2022-07-23T10:42:39;30.80;35.00
61765;DHT22;50188;48.114;-1.388;2022-07-23T10:45:33;30.90;35.10
61765;DHT22;50188;48.114;-1.388;2022-07-23T10:48:18;31.10;35.80
61765;DHT22;50188;48.114;-1.388;2022-07-23T10:51:12;31.40;34.90
61765;DHT22;50188;48.114;-1.388;2022-07-23T10:53:56;30.10;34.40
61765;DHT22;50188;48.114;-1.388;2022-07-23T10:57:04;29.80;36.30
61765;DHT22;50188;48.114;-1.388;2022-07-23T10:59:27;28.90;36.70
61765;DHT22;50188;48.114;-1.388;2022-07-23T11:01:53;29.10;38.80
61765;DHT22;50188;48.114;-1.388;2022-07-23T11:04:18;29.30;36.90
61765;DHT22;50188;48.114;-1.388;2022-07-23T11:07:06;30.10;35.80
61765;DHT22;50188;48.114;-1.388;2022-07-23T11:09:40;29.90;35.30
61765;DHT22;50188;48.114;-1.388;2022-07-23T11:12:31;30.20;35.10
61765;DHT22;50188;48.114;-1.388;2022-07-23T11:15:09;30.90;34.60
61765;DHT22;50188;48.114;-1.388;2022-07-23T11:20:23;31.40;33.40
61765;DHT22;50188;48.114;-1.388;2022-07-23T11:22:51;31.00;32.20
61765;DHT22;50188;48.114;-1.388;2022-07-23T11:25:32;31.30;33.10
61765;DHT22;50188;48.114;-1.388;2022-07-23T11:28:17;30.90;33.10
61765;DHT22;50188;48.114;-1.388;2022-07-23T11:30:44;31.50;32.50
61765;DHT22;50188;48.114;-1.388;2022-07-23T11:33:18;30.90;32.60
61765;DHT22;50188;48.114;-1.388;2022-07-23T11:35:46;30.40;33.50
61765;DHT22;50188;48.114;-1.388;2022-07-23T11:38:21;30.80;34.60
61765;DHT22;50188;48.114;-1.388;2022-07-23T11:40:49;31.40;32.90
61765;DHT22;50188;48.114;-1.388;2022-07-23T11:43:16;31.60;31.80
61765;DHT22;50188;48.114;-1.388;2022-07-23T11:45:46;31.80;31.20
61765;DHT22;50188;48.114;-1.388;2022-07-23T11:48:19;31.40;32.90
61765;DHT22;50188;48.114;-1.388;2022-07-23T11:50:46;31.90;30.40
61765;DHT22;50188;48.114;-1.388;2022-07-23T11:53:12;31.70;30.90
61765;DHT22;50188;48.114;-1.388;2022-07-23T11:55:40;31.10;31.20
61765;DHT22;50188;48.114;-1.388;2022-07-23T11:58:06;31.20;31.80
61765;DHT22;50188;48.114;-1.388;2022-07-23T12:00:32;30.70;32.10
61765;DHT22;50188;48.114;-1.388;2022-07-23T12:03:01;31.30;31.70
61765;DHT22;50188;48.114;-1.388;2022-07-23T12:05:33;31.60;31.40
61765;DHT22;50188;48.114;-1.388;2022-07-23T12:08:00;31.70;30.30
61765;DHT22;50188;48.114;-1.388;2022-07-23T12:10:30;31.20;30.80
61765;DHT22;50188;48.114;-1.388;2022-07-23T12:13:07;31.30;30.20
61765;DHT22;50188;48.114;-1.388;2022-07-23T12:15:38;30.90;31.50
61765;DHT22;50188;48.114;-1.388;2022-07-23T12:18:07;30.50;31.30
61765;DHT22;50188;48.114;-1.388;2022-07-23T12:20:36;30.90;31.80
61765;DHT22;50188;48.114;-1.388;2022-07-23T12:23:05;31.20;31.50
61765;DHT22;50188;48.114;-1.388;2022-07-23T12:25:37;31.30;31.10
61765;DHT22;50188;48.114;-1.388;2022-07-23T12:28:07;31.60;31.10
61765;DHT22;50188;48.114;-1.388;2022-07-23T12:30:45;31.50;30.60
61765;DHT22;50188;48.114;-1.388;2022-07-23T12:33:27;31.70;30.70
61765;DHT22;50188;48.114;-1.388;2022-07-23T12:35:55;31.40;30.20
61765;DHT22;50188;48.114;-1.388;2022-07-23T12:38:22;30.90;31.00
61765;DHT22;50188;48.114;-1.388;2022-07-23T12:40:50;30.90;31.20
61765;DHT22;50188;48.114;-1.388;2022-07-23T12:43:29;31.10;31.40
61765;DHT22;50188;48.114;-1.388;2022-07-23T12:46:03;31.10;31.60
61765;DHT22;50188;48.114;-1.388;2022-07-23T12:48:32;30.90;31.40
61765;DHT22;50188;48.114;-1.388;2022-07-23T12:51:08;30.80;31.40
61765;DHT22;50188;48.114;-1.388;2022-07-23T12:53:43;31.40;31.50
61765;DHT22;50188;48.114;-1.388;2022-07-23T12:56:16;31.10;31.00
61765;DHT22;50188;48.114;-1.388;2022-07-23T12:58:57;31.20;31.80
61765;DHT22;50188;48.114;-1.388;2022-07-23T13:01:25;31.10;30.90
61765;DHT22;50188;48.114;-1.388;2022-07-23T13:04:17;31.20;30.80
61765;DHT22;50188;48.114;-1.388;2022-07-23T13:06:51;31.40;30.20
61765;DHT22;50188;48.114;-1.388;2022-07-23T13:09:23;31.50;31.30
61765;DHT22;50188;48.114;-1.388;2022-07-23T13:11:50;31.10;30.10
61765;DHT22;50188;48.114;-1.388;2022-07-23T13:14:19;30.70;30.50
61765;DHT22;50188;48.114;-1.388;2022-07-23T13:16:45;30.60;30.30
61765;DHT22;50188;48.114;-1.388;2022-07-23T13:19:12;30.60;32.30
61765;DHT22;50188;48.114;-1.388;2022-07-23T13:21:39;30.60;31.50
61765;DHT22;50188;48.114;-1.388;2022-07-23T13:24:05;30.80;31.20
61765;DHT22;50188;48.114;-1.388;2022-07-23T13:26:31;30.50;32.00
61765;DHT22;50188;48.114;-1.388;2022-07-23T13:28:57;30.50;32.40
61765;DHT22;50188;48.114;-1.388;2022-07-23T13:31:24;30.10;31.60
61765;DHT22;50188;48.114;-1.388;2022-07-23T13:33:50;30.10;31.90
61765;DHT22;50188;48.114;-1.388;2022-07-23T13:36:16;30.10;31.80
61765;DHT22;50188;48.114;-1.388;2022-07-23T13:38:41;30.40;31.60
61765;DHT22;50188;48.114;-1.388;2022-07-23T13:41:07;30.30;30.40
61765;DHT22;50188;48.114;-1.388;2022-07-23T13:43:33;30.10;31.30
61765;DHT22;50188;48.114;-1.388;2022-07-23T13:45:59;30.20;31.90
61765;DHT22;50188;48.114;-1.388;2022-07-23T13:48:25;30.40;32.00
61765;DHT22;50188;48.114;-1.388;2022-07-23T13:50:51;30.10;31.50
61765;DHT22;50188;48.114;-1.388;2022-07-23T13:53:22;30.10;31.90
61765;DHT22;50188;48.114;-1.388;2022-07-23T13:55:49;29.60;32.30
61765;DHT22;50188;48.114;-1.388;2022-07-23T13:58:16;29.90;32.30
61765;DHT22;50188;48.114;-1.388;2022-07-23T14:00:49;30.00;31.90
61765;DHT22;50188;48.114;-1.388;2022-07-23T14:03:16;30.10;32.10
61765;DHT22;50188;48.114;-1.388;2022-07-23T14:05:42;30.10;31.80
61765;DHT22;50188;48.114;-1.388;2022-07-23T14:08:09;30.10;31.50
61765;DHT22;50188;48.114;-1.388;2022-07-23T14:10:35;29.70;32.50
61765;DHT22;50188;48.114;-1.388;2022-07-23T14:13:01;29.70;33.40
61765;DHT22;50188;48.114;-1.388;2022-07-23T14:15:29;29.60;32.50
61765;DHT22;50188;48.114;-1.388;2022-07-23T14:17:58;29.50;32.50
61765;DHT22;50188;48.114;-1.388;2022-07-23T14:20:24;29.50;31.70
61765;DHT22;50188;48.114;-1.388;2022-07-23T14:22:51;29.60;32.20
61765;DHT22;50188;48.114;-1.388;2022-07-23T14:25:17;29.50;31.70
61765;DHT22;50188;48.114;-1.388;2022-07-23T14:27:43;29.30;31.20
61765;DHT22;50188;48.114;-1.388;2022-07-23T14:30:10;29.00;32.30
61765;DHT22;50188;48.114;-1.388;2022-07-23T14:32:36;28.90;32.40
61765;DHT22;50188;48.114;-1.388;2022-07-23T14:35:04;28.60;32.10
61765;DHT22;50188;48.114;-1.388;2022-07-23T14:37:30;28.40;33.30
61765;DHT22;50188;48.114;-1.388;2022-07-23T14:39:56;28.60;33.50
61765;DHT22;50188;48.114;-1.388;2022-07-23T14:42:21;28.80;33.10
61765;DHT22;50188;48.114;-1.388;2022-07-23T14:44:47;28.90;33.30
61765;DHT22;50188;48.114;-1.388;2022-07-23T14:47:13;28.80;33.10
61765;DHT22;50188;48.114;-1.388;2022-07-23T14:49:42;28.90;32.80
61765;DHT22;50188;48.114;-1.388;2022-07-23T14:52:08;28.90;34.00
61765;DHT22;50188;48.114;-1.388;2022-07-23T14:54:34;28.70;32.90
61765;DHT22;50188;48.114;-1.388;2022-07-23T14:57:01;28.70;33.50
61765;DHT22;50188;48.114;-1.388;2022-07-23T14:59:28;28.50;32.90
61765;DHT22;50188;48.114;-1.388;2022-07-23T15:01:54;28.40;33.30
61765;DHT22;50188;48.114;-1.388;2022-07-23T15:04:20;28.40;33.50
61765;DHT22;50188;48.114;-1.388;2022-07-23T15:06:46;28.20;33.10
61765;DHT22;50188;48.114;-1.388;2022-07-23T15:09:15;28.40;33.30
61765;DHT22;50188;48.114;-1.388;2022-07-23T15:11:41;28.40;33.50
61765;DHT22;50188;48.114;-1.388;2022-07-23T15:14:09;28.30;33.50
61765;DHT22;50188;48.114;-1.388;2022-07-23T15:16:36;28.40;32.70
61765;DHT22;50188;48.114;-1.388;2022-07-23T15:19:03;28.40;33.20
61765;DHT22;50188;48.114;-1.388;2022-07-23T15:21:29;28.30;33.30
61765;DHT22;50188;48.114;-1.388;2022-07-23T15:23:56;28.40;33.20
61765;DHT22;50188;48.114;-1.388;2022-07-23T15:26:28;28.10;33.50